sensor_id;sensor_type;location;lat;lon;timestamp;temperature;humidity
5848;DHT22;8756;49.29324300;8.70599800;2022-12-18T00:01:21;-6.90;99.90
5848;DHT22;8756;49.29324300;8.70599800;2022-12-18T00:03:52;-6.90;99.90
5848;DHT22;8756;49.29324300;8.70599800;2022-12-18T00:06:20;-7.00;99.90
5848;DHT22;8756;49.29324300;8.70599800;2022-12-18T00:08:46;-7.10;99.90
5848;DHT22;8756;49.29324300;8.70599800;2022-12-18T00:11:15;-7.10;99.90
5848;DHT22;8756;49.29324300;8.70599800;2022-12-18T00:13:42;-7.10;99.90
5848;DHT22;8756;49.29324300;8.70599800;2022-12-18T00:16:13;-7.00;99.90
5848;DHT22;8756;49.29324300;8.70599800;2022-12-18T00:18:41;-7.00;99.90
5848;DHT22;8756;49.29324300;8.70599800;2022-12-18T00:21:09;-6.90;99.90
5848;DHT22;8756;49.29324300;8.70599800;2022-12-18T00:23:39;-6.90;99.90
5848;DHT22;8756;49.29324300;8.70599800;2022-12-18T00:26:09;-6.90;99.90
5848;DHT22;8756;49.29324300;8.70599800;2022-12-18T00:28:36;-6.90;99.90
5848;DHT22;8756;49.29324300;8.70599800;2022-12-18T00:31:11;-6.90;99.90
5848;DHT22;8756;49.29324300;8.70599800;2022-12-18T00:33:38;-7.00;99.90
5848;DHT22;8756;49.29324300;8.70599800;2022-12-18T00:36:10;-7.00;99.90
5848;DHT22;8756;49.29324300;8.70599800;2022-12-18T00:38:38;-7.00;99.90
5848;DHT22;8756;49.29324300;8.70599800;2022-12-18T00:41:04;-6.90;99.90
5848;DHT22;8756;49.29324300;8.70599800;2022-12-18T00:43:34;-6.90;99.90
5848;DHT22;8756;49.29324300;8.70599800;2022-12-18T00:46:00;-6.90;99.90
5848;DHT22;8756;49.29324300;8.70599800;2022-12-18T00:48:26;-7.00;99.90
5848;DHT22;8756;49.29324300;8.70599800;2022-12-18T00:50:52;-7.00;99.90
5848;DHT22;8756;49.29324300;8.70599800;2022-12-18T00:53:18;-6.90;99.90
5848;DHT22;8756;49.29324300;8.70599800;2022-12-18T00:55:44;-6.80;99.90
5848;DHT22;8756;49.29324300;8.70599800;2022-12-18T00:58:11;-6.70;99.90
5848;DHT22;8756;49.29324300;8.70599800;2022-12-18T01:00:37;-6.70;99.90
5848;DHT22;8756;49.29324300;8.70599800;2022-12-18T01:03:04;-6.70;99.90
5848;DHT22;8756;49.29324300;8.70599800;2022-12-18T01:05:33;-6.60;99.90
5848;DHT22;8756;49.29324300;8.70599800;2022-12-18T01:07:59;-6.60;99.90
5848;DHT22;8756;49.29324300;8.70599800;2022-12-18T01:10:25;-6.60;99.90
5848;DHT22;8756;49.29324300;8.70599800;2022-12-18T01:12:51;-6.70;99.90
5848;DHT22;8756;49.29324300;8.70599800;2022-12-18T01:15:17;-6.80;99.90
5848;DHT22;8756;49.29324300;8.70599800;2022-12-18T01:17:43;-6.80;99.90
5848;DHT22;8756;49.29324300;8.70599800;2022-12-18T01:20:11;-6.90;99.90
5848;DHT22;8756;49.29324300;8.70599800;2022-12-18T01:22:38;-6.90;99.90
5848;DHT22;8756;49.29324300;8.70599800;2022-12-18T01:25:05;-7.00;99.90
5848;DHT22;8756;49.29324300;8.70599800;2022-12-18T01:27:32;-7.00;99.90
5848;DHT22;8756;49.29324300;8.70599800;2022-12-18T01:29:58;-7.00;99.90
5848;DHT22;8756;49.29324300;8.70599800;2022-12-18T01:32:24;-7.00;99.90
5848;DHT22;8756;49.29324300;8.70599800;2022-12-18T01:34:50;-7.00;99.90
5848;DHT22;8756;49.29324300;8.70599800;2022-12-18T01:37:15;-7.00;99.90
5848;DHT22;8756;49.29324300;8.70599800;2022-12-18T01:39:41;-6.90;99.90
5848;DHT22;8756;49.29324300;8.70599800;2022-12-18T01:42:14;-6.90;99.90
5848;DHT22;8756;49.29324300;8.70599800;2022-12-18T01:45:04;-6.90;99.90
5848;DHT22;8756;49.29324300;8.70599800;2022-12-18T01:47:36;-6.80;99.90
5848;DHT22;8756;49.29324300;8.70599800;2022-12-18T01:50:16;-6.90;99.90
5848;DHT22;8756;49.29324300;8.70599800;2022-12-18T01:52:46;-7.00;99.90
5848;DHT22;8756;49.29324300;8.70599800;2022-12-18T01:55:18;-7.00;99.90
5848;DHT22;8756;49.29324300;8.70599800;2022-12-18T01:57:45;-7.00;99.90
5848;DHT22;8756;49.29324300;8.70599800;2022-12-18T02:00:17;-6.90;99.90
5848;DHT22;8756;49.29324300;8.70599800;2022-12-18T02:02:45;-6.80;99.90
5848;DHT22;8756;49.29324300;8.70599800;2022-12-18T02:05:15;-6.70;99.90
5848;DHT22;8756;49.29324300;8.70599800;2022-12-18T02:08:03;-6.70;99.90
5848;DHT22;8756;49.29324300;8.70599800;2022-12-18T02:16:52;-6.50;99.90
5848;DHT22;8756;49.29324300;8.70599800;2022-12-18T02:22:26;-6.40;99.90
5848;DHT22;8756;49.29324300;8.70599800;2022-12-18T02:27:33;-6.30;99.90
5848;DHT22;8756;49.29324300;8.70599800;2022-12-18T02:30:02;-6.30;99.90
5848;DHT22;8756;49.29324300;8.70599800;2022-12-18T02:32:41;-6.30;99.90
5848;DHT22;8756;49.29324300;8.70599800;2022-12-18T02:35:14;-6.30;99.90
5848;DHT22;8756;49.29324300;8.70599800;2022-12-18T02:37:44;-6.20;99.90
5848;DHT22;8756;49.29324300;8.70599800;2022-12-18T02:40:12;-6.20;99.90
5848;DHT22;8756;49.29324300;8.70599800;2022-12-18T02:42:39;-6.10;99.90
5848;DHT22;8756;49.29324300;8.70599800;2022-12-18T02:45:05;-6.10;99.90
5848;DHT22;8756;49.29324300;8.70599800;2022-12-18T02:47:34;-6.00;99.90
5848;DHT22;8756;49.29324300;8.70599800;2022-12-18T02:50:30;-6.00;99.90
5848;DHT22;8756;49.29324300;8.70599800;2022-12-18T02:53:17;-6.00;99.90
5848;DHT22;8756;49.29324300;8.70599800;2022-12-18T02:56:03;-6.00;99.90
5848;DHT22;8756;49.29324300;8.70599800;2022-12-18T02:59:00;-6.00;99.90
5848;DHT22;8756;49.29324300;8.70599800;2022-12-18T03:01:52;-6.00;99.90
5848;DHT22;8756;49.29324300;8.70599800;2022-12-18T03:04:26;-6.10;99.90
5848;DHT22;8756;49.29324300;8.70599800;2022-12-18T03:07:02;-6.10;99.90
5848;DHT22;8756;49.29324300;8.70599800;2022-12-18T03:09:40;-6.00;99.90
5848;DHT22;8756;49.29324300;8.70599800;2022-12-18T03:12:32;-6.00;99.90
5848;DHT22;8756;49.29324300;8.70599800;2022-12-18T03:15:28;-6.00;99.90
5848;DHT22;8756;49.29324300;8.70599800;2022-12-18T03:18:02;-6.00;99.90
5848;DHT22;8756;49.29324300;8.70599800;2022-12-18T03:20:32;-6.00;99.90
5848;DHT22;8756;49.29324300;8.70599800;2022-12-18T03:23:06;-5.90;99.90
5848;DHT22;8756;49.29324300;8.70599800;2022-12-18T03:25:35;-5.90;99.90
5848;DHT22;8756;49.29324300;8.70599800;2022-12-18T03:28:06;-5.80;99.90
5848;DHT22;8756;49.29324300;8.70599800;2022-12-18T03:30:37;-5.70;99.90
5848;DHT22;8756;49.29324300;8.70599800;2022-12-18T03:33:31;-5.80;99.90
5848;DHT22;8756;49.29324300;8.70599800;2022-12-18T03:36:01;-5.80;99.90
5848;DHT22;8756;49.29324300;8.70599800;2022-12-18T03:38:26;-5.80;99.90
5848;DHT22;8756;49.29324300;8.70599800;2022-12-18T03:41:18;-5.70;99.90
5848;DHT22;8756;49.29324300;8.70599800;2022-12-18T03:44:13;-5.80;99.90
5848;DHT22;8756;49.29324300;8.70599800;2022-12-18T03:52:24;-5.70;99.90
5848;DHT22;8756;49.29324300;8.70599800;2022-12-18T03:54:55;-5.70;99.90
5848;DHT22;8756;49.29324300;8.70599800;2022-12-18T03:57:24;-5.70;99.90
5848;DHT22;8756;49.29324300;8.70599800;2022-12-18T03:59:56;-5.70;99.90
5848;DHT22;8756;49.29324300;8.70599800;2022-12-18T04:02:25;-5.70;99.90
5848;DHT22;8756;49.29324300;8.70599800;2022-12-18T04:04:53;-5.70;99.90
5848;DHT22;8756;49.29324300;8.70599800;2022-12-18T04:07:22;-5.70;99.90
5848;DHT22;8756;49.29324300;8.70599800;2022-12-18T04:09:49;-5.70;99.90
5848;DHT22;8756;49.29324300;8.70599800;2022-12-18T04:12:17;-5.70;99.90
5848;DHT22;8756;49.29324300;8.70599800;2022-12-18T04:14:43;-5.70;99.90
5848;DHT22;8756;49.29324300;8.70599800;2022-12-18T04:17:08;-5.70;99.90
5848;DHT22;8756;49.29324300;8.70599800;2022-12-18T04:19:34;-5.80;99.90
5848;DHT22;8756;49.29324300;8.70599800;2022-12-18T04:22:00;-5.80;99.90
5848;DHT22;8756;49.29324300;8.70599800;2022-12-18T04:24:25;-5.80;99.90
5848;DHT22;8756;49.29324300;8.70599800;2022-12-18T04:26:51;-5.80;99.90
5848;DHT22;8756;49.29324300;8.70599800;2022-12-18T04:29:17;-5.70;99.90
5848;DHT22;8756;49.29324300;8.70599800;2022-12-18T04:31:42;-5.70;99.90
5848;DHT22;8756;49.29324300;8.70599800;2022-12-18T04:34:08;-5.70;99.90
5848;DHT22;8756;49.29324300;8.70599800;2022-12-18T04:36:34;-5.70;99.90
5848;DHT22;8756;49.29324300;8.70599800;2022-12-18T04:39:02;-5.70;99.90
5848;DHT22;8756;49.29324300;8.70599800;2022-12-18T04:41:28;-5.70;99.90
5848;DHT22;8756;49.29324300;8.70599800;2022-12-18T04:43:53;-5.70;99.90
5848;DHT22;8756;49.29324300;8.70599800;2022-12-18T04:46:19;-5.70;99.90
5848;DHT22;8756;49.29324300;8.70599800;2022-12-18T04:48:46;-5.70;99.90
5848;DHT22;8756;49.29324300;8.70599800;2022-12-18T04:51:12;-5.70;99.90
5848;DHT22;8756;49.29324300;8.70599800;2022-12-18T04:53:38;-5.70;99.90
5848;DHT22;8756;49.29324300;8.70599800;2022-12-18T04:56:05;-5.70;99.90
5848;DHT22;8756;49.29324300;8.70599800;2022-12-18T04:58:31;-5.70;99.90
5848;DHT22;8756;49.29324300;8.70599800;2022-12-18T05:00:58;-5.70;99.90
5848;DHT22;8756;49.29324300;8.70599800;2022-12-18T05:03:24;-5.80;99.90
5848;DHT22;8756;49.29324300;8.70599800;2022-12-18T05:05:50;-5.80;99.90
5848;DHT22;8756;49.29324300;8.70599800;2022-12-18T05:08:17;-5.80;99.90
5848;DHT22;8756;49.29324300;8.70599800;2022-12-18T05:10:43;-5.80;99.90
5848;DHT22;8756;49.29324300;8.70599800;2022-12-18T05:13:09;-5.80;99.90
5848;DHT22;8756;49.29324300;8.70599800;2022-12-18T05:15:34;-5.80;99.90
5848;DHT22;8756;49.29324300;8.70599800;2022-12-18T05:18:00;-5.80;99.90
5848;DHT22;8756;49.29324300;8.70599800;2022-12-18T05:20:27;-5.80;99.90
5848;DHT22;8756;49.29324300;8.70599800;2022-12-18T05:22:53;-5.70;99.90
5848;DHT22;8756;49.29324300;8.70599800;2022-12-18T05:25:20;-5.80;99.90
5848;DHT22;8756;49.29324300;8.70599800;2022-12-18T05:27:46;-5.80;99.90
5848;DHT22;8756;49.29324300;8.70599800;2022-12-18T05:30:13;-5.80;99.90
5848;DHT22;8756;49.29324300;8.70599800;2022-12-18T05:32:39;-5.80;99.90
5848;DHT22;8756;49.29324300;8.70599800;2022-12-18T05:35:06;-5.80;99.90
5848;DHT22;8756;49.29324300;8.70599800;2022-12-18T05:37:33;-5.80;99.90
5848;DHT22;8756;49.29324300;8.70599800;2022-12-18T05:39:59;-5.80;99.90
5848;DHT22;8756;49.29324300;8.70599800;2022-12-18T05:42:24;-5.80;99.90
5848;DHT22;8756;49.29324300;8.70599800;2022-12-18T05:44:50;-5.80;99.90
5848;DHT22;8756;49.29324300;8.70599800;2022-12-18T05:47:16;-5.90;99.90
5848;DHT22;8756;49.29324300;8.70599800;2022-12-18T05:49:41;-5.90;99.90
5848;DHT22;8756;49.29324300;8.70599800;2022-12-18T05:52:12;-6.00;99.90
5848;DHT22;8756;49.29324300;8.70599800;2022-12-18T05:54:38;-6.00;99.90
5848;DHT22;8756;49.29324300;8.70599800;2022-12-18T05:57:04;-6.00;99.90
5848;DHT22;8756;49.29324300;8.70599800;2022-12-18T05:59:30;-6.10;99.90
5848;DHT22;8756;49.29324300;8.70599800;2022-12-18T06:01:55;-6.10;99.90
5848;DHT22;8756;49.29324300;8.70599800;2022-12-18T06:04:21;-6.10;99.90
5848;DHT22;8756;49.29324300;8.70599800;2022-12-18T06:06:47;-6.20;99.90
5848;DHT22;8756;49.29324300;8.70599800;2022-12-18T06:09:13;-6.20;99.90
5848;DHT22;8756;49.29324300;8.70599800;2022-12-18T06:11:39;-6.20;99.90
5848;DHT22;8756;49.29324300;8.70599800;2022-12-18T06:14:05;-6.20;99.90
5848;DHT22;8756;49.29324300;8.70599800;2022-12-18T06:16:33;-6.20;99.90
5848;DHT22;8756;49.29324300;8.70599800;2022-12-18T06:19:01;-6.20;99.90
5848;DHT22;8756;49.29324300;8.70599800;2022-12-18T06:21:28;-6.20;99.90
5848;DHT22;8756;49.29324300;8.70599800;2022-12-18T06:23:54;-6.20;99.90
5848;DHT22;8756;49.29324300;8.70599800;2022-12-18T06:26:20;-6.10;99.90
5848;DHT22;8756;49.29324300;8.70599800;2022-12-18T06:28:46;-6.20;99.90
5848;DHT22;8756;49.29324300;8.70599800;2022-12-18T06:31:12;-6.10;99.90
5848;DHT22;8756;49.29324300;8.70599800;2022-12-18T06:33:38;-6.20;99.90
5848;DHT22;8756;49.29324300;8.70599800;2022-12-18T06:36:10;-6.20;99.90
5848;DHT22;8756;49.29324300;8.70599800;2022-12-18T06:38:40;-6.20;99.90
5848;DHT22;8756;49.29324300;8.70599800;2022-12-18T06:41:15;-6.20;99.90
5848;DHT22;8756;49.29324300;8.70599800;2022-12-18T06:43:42;-6.10;99.90
5848;DHT22;8756;49.29324300;8.70599800;2022-12-18T06:46:09;-6.20;99.90
5848;DHT22;8756;49.29324300;8.70599800;2022-12-18T06:48:35;-6.20;99.90
5848;DHT22;8756;49.29324300;8.70599800;2022-12-18T06:51:01;-6.20;99.90
5848;DHT22;8756;49.29324300;8.70599800;2022-12-18T06:53:27;-6.20;99.90
5848;DHT22;8756;49.29324300;8.70599800;2022-12-18T06:56:00;-6.20;99.90
5848;DHT22;8756;49.29324300;8.70599800;2022-12-18T06:58:30;-6.20;99.90
5848;DHT22;8756;49.29324300;8.70599800;2022-12-18T07:01:00;-6.20;99.90
5848;DHT22;8756;49.29324300;8.70599800;2022-12-18T07:03:27;-6.30;99.90
5848;DHT22;8756;49.29324300;8.70599800;2022-12-18T07:05:56;-6.30;99.90
5848;DHT22;8756;49.29324300;8.70599800;2022-12-18T07:08:22;-6.30;99.90
5848;DHT22;8756;49.29324300;8.70599800;2022-12-18T07:10:47;-6.30;99.90
5848;DHT22;8756;49.29324300;8.70599800;2022-12-18T07:13:15;-6.40;99.90
5848;DHT22;8756;49.29324300;8.70599800;2022-12-18T07:15:41;-6.40;99.90
5848;DHT22;8756;49.29324300;8.70599800;2022-12-18T07:18:07;-6.40;99.90
5848;DHT22;8756;49.29324300;8.70599800;2022-12-18T07:20:33;-6.40;99.90
5848;DHT22;8756;49.29324300;8.70599800;2022-12-18T07:22:58;-6.50;99.90
5848;DHT22;8756;49.29324300;8.70599800;2022-12-18T07:25:24;-6.50;99.90
5848;DHT22;8756;49.29324300;8.70599800;2022-12-18T07:27:50;-6.50;99.90
5848;DHT22;8756;49.29324300;8.70599800;2022-12-18T07:30:15;-6.50;99.90
5848;DHT22;8756;49.29324300;8.70599800;2022-12-18T07:32:41;-6.50;99.90
5848;DHT22;8756;49.29324300;8.70599800;2022-12-18T07:35:07;-6.60;99.90
5848;DHT22;8756;49.29324300;8.70599800;2022-12-18T07:37:32;-6.60;99.90
5848;DHT22;8756;49.29324300;8.70599800;2022-12-18T07:39:58;-6.60;99.90
5848;DHT22;8756;49.29324300;8.70599800;2022-12-18T07:42:24;-6.50;99.90
5848;DHT22;8756;49.29324300;8.70599800;2022-12-18T07:44:59;-6.50;99.90
5848;DHT22;8756;49.29324300;8.70599800;2022-12-18T07:47:25;-6.50;99.90
5848;DHT22;8756;49.29324300;8.70599800;2022-12-18T07:49:51;-6.50;99.90
5848;DHT22;8756;49.29324300;8.70599800;2022-12-18T07:52:17;-6.50;99.90
5848;DHT22;8756;49.29324300;8.70599800;2022-12-18T07:54:43;-6.60;99.90
5848;DHT22;8756;49.29324300;8.70599800;2022-12-18T07:57:09;-6.50;99.90
5848;DHT22;8756;49.29324300;8.70599800;2022-12-18T07:59:35;-6.60;99.90
5848;DHT22;8756;49.29324300;8.70599800;2022-12-18T08:02:01;-6.50;99.90
5848;DHT22;8756;49.29324300;8.70599800;2022-12-18T08:04:26;-6.60;99.90
5848;DHT22;8756;49.29324300;8.70599800;2022-12-18T08:06:52;-6.60;99.90
5848;DHT22;8756;49.29324300;8.70599800;2022-12-18T08:09:18;-6.50;99.90
5848;DHT22;8756;49.29324300;8.70599800;2022-12-18T08:11:44;-6.50;99.90
5848;DHT22;8756;49.29324300;8.70599800;2022-12-18T08:14:09;-6.50;99.90
5848;DHT22;8756;49.29324300;8.70599800;2022-12-18T08:16:36;-6.50;99.90
5848;DHT22;8756;49.29324300;8.70599800;2022-12-18T08:19:02;-6.50;99.90
5848;DHT22;8756;49.29324300;8.70599800;2022-12-18T08:21:31;-6.40;99.90
5848;DHT22;8756;49.29324300;8.70599800;2022-12-18T08:23:58;-6.50;99.90
5848;DHT22;8756;49.29324300;8.70599800;2022-12-18T08:26:28;-6.50;99.90
5848;DHT22;8756;49.29324300;8.70599800;2022-12-18T08:28:56;-6.50;99.90
5848;DHT22;8756;49.29324300;8.70599800;2022-12-18T08:31:24;-6.50;99.90
5848;DHT22;8756;49.29324300;8.70599800;2022-12-18T08:33:52;-6.50;99.90
5848;DHT22;8756;49.29324300;8.70599800;2022-12-18T08:36:21;-6.50;99.90
5848;DHT22;8756;49.29324300;8.70599800;2022-12-18T08:38:48;-6.50;99.90
5848;DHT22;8756;49.29324300;8.70599800;2022-12-18T08:41:16;-6.50;99.90
5848;DHT22;8756;49.29324300;8.70599800;2022-12-18T08:43:43;-6.40;99.90
5848;DHT22;8756;49.29324300;8.70599800;2022-12-18T08:46:32;-6.40;99.90
5848;DHT22;8756;49.29324300;8.70599800;2022-12-18T08:49:00;-6.40;99.90
5848;DHT22;8756;49.29324300;8.70599800;2022-12-18T08:51:27;-6.40;99.90
5848;DHT22;8756;49.29324300;8.70599800;2022-12-18T08:53:53;-6.30;99.90
5848;DHT22;8756;49.29324300;8.70599800;2022-12-18T08:56:18;-6.30;99.90
5848;DHT22;8756;49.29324300;8.70599800;2022-12-18T08:58:44;-6.30;99.90
5848;DHT22;8756;49.29324300;8.70599800;2022-12-18T09:01:11;-6.20;99.90
5848;DHT22;8756;49.29324300;8.70599800;2022-12-18T09:03:38;-6.20;99.90
5848;DHT22;8756;49.29324300;8.70599800;2022-12-18T09:06:05;-6.20;99.90
5848;DHT22;8756;49.29324300;8.70599800;2022-12-18T09:08:31;-6.20;99.90
5848;DHT22;8756;49.29324300;8.70599800;2022-12-18T09:10:56;-6.20;99.90
5848;DHT22;8756;49.29324300;8.70599800;2022-12-18T09:13:22;-6.10;99.90
5848;DHT22;8756;49.29324300;8.70599800;2022-12-18T09:15:51;-6.10;99.90
5848;DHT22;8756;49.29324300;8.70599800;2022-12-18T09:18:20;-6.10;99.90
5848;DHT22;8756;49.29324300;8.70599800;2022-12-18T09:20:47;-6.10;99.90
5848;DHT22;8756;49.29324300;8.70599800;2022-12-18T09:23:13;-6.00;99.90
5848;DHT22;8756;49.29324300;8.70599800;2022-12-18T09:25:39;-6.00;99.90
5848;DHT22;8756;49.29324300;8.70599800;2022-12-18T09:28:10;-6.00;99.90
5848;DHT22;8756;49.29324300;8.70599800;2022-12-18T09:30:47;-5.90;99.90
5848;DHT22;8756;49.29324300;8.70599800;2022-12-18T09:33:15;-5.90;99.90
5848;DHT22;8756;49.29324300;8.70599800;2022-12-18T09:35:43;-5.90;99.90
5848;DHT22;8756;49.29324300;8.70599800;2022-12-18T09:38:13;-5.80;99.90
5848;DHT22;8756;49.29324300;8.70599800;2022-12-18T09:40:49;-5.80;99.90
5848;DHT22;8756;49.29324300;8.70599800;2022-12-18T09:43:29;-5.80;99.90
5848;DHT22;8756;49.29324300;8.70599800;2022-12-18T09:46:07;-5.70;99.90
5848;DHT22;8756;49.29324300;8.70599800;2022-12-18T09:48:40;-5.70;99.90
5848;DHT22;8756;49.29324300;8.70599800;2022-12-18T09:51:24;-5.60;99.90
5848;DHT22;8756;49.29324300;8.70599800;2022-12-18T09:54:26;-5.60;99.90
5848;DHT22;8756;49.29324300;8.70599800;2022-12-18T09:56:56;-5.50;99.90
5848;DHT22;8756;49.29324300;8.70599800;2022-12-18T09:59:32;-5.50;99.90
5848;DHT22;8756;49.29324300;8.70599800;2022-12-18T10:02:22;-5.40;99.90
5848;DHT22;8756;49.29324300;8.70599800;2022-12-18T10:05:03;-5.30;99.90
5848;DHT22;8756;49.29324300;8.70599800;2022-12-18T10:07:43;-5.30;99.90
5848;DHT22;8756;49.29324300;8.70599800;2022-12-18T10:10:31;-5.20;99.90
5848;DHT22;8756;49.29324300;8.70599800;2022-12-18T10:13:23;-5.20;99.90
5848;DHT22;8756;49.29324300;8.70599800;2022-12-18T10:25:34;-5.00;99.90
5848;DHT22;8756;49.29324300;8.70599800;2022-12-18T10:28:14;-4.90;99.90
5848;DHT22;8756;49.29324300;8.70599800;2022-12-18T10:30:42;-4.90;99.90
5848;DHT22;8756;49.29324300;8.70599800;2022-12-18T10:33:14;-4.80;99.90
5848;DHT22;8756;49.29324300;8.70599800;2022-12-18T10:35:43;-4.80;99.90
5848;DHT22;8756;49.29324300;8.70599800;2022-12-18T10:40:53;-4.70;99.90
5848;DHT22;8756;49.29324300;8.70599800;2022-12-18T10:43:36;-4.70;99.90
5848;DHT22;8756;49.29324300;8.70599800;2022-12-18T10:46:17;-4.60;99.90
5848;DHT22;8756;49.29324300;8.70599800;2022-12-18T10:51:27;-4.50;99.90
5848;DHT22;8756;49.29324300;8.70599800;2022-12-18T10:53:59;-4.40;99.90
5848;DHT22;8756;49.29324300;8.70599800;2022-12-18T10:56:27;-4.40;99.90
5848;DHT22;8756;49.29324300;8.70599800;2022-12-18T10:59:06;-4.30;99.90
5848;DHT22;8756;49.29324300;8.70599800;2022-12-18T11:01:56;-4.30;99.90
5848;DHT22;8756;49.29324300;8.70599800;2022-12-18T11:04:23;-4.20;99.90
5848;DHT22;8756;49.29324300;8.70599800;2022-12-18T11:07:05;-4.20;99.90
5848;DHT22;8756;49.29324300;8.70599800;2022-12-18T11:09:39;-4.20;99.90
5848;DHT22;8756;49.29324300;8.70599800;2022-12-18T11:12:25;-4.10;99.90
5848;DHT22;8756;49.29324300;8.70599800;2022-12-18T11:14:54;-4.00;99.90
5848;DHT22;8756;49.29324300;8.70599800;2022-12-18T11:20:21;-3.90;99.90
5848;DHT22;8756;49.29324300;8.70599800;2022-12-18T11:23:01;-3.90;99.90
5848;DHT22;8756;49.29324300;8.70599800;2022-12-18T11:25:29;-3.80;99.90
5848;DHT22;8756;49.29324300;8.70599800;2022-12-18T11:28:01;-3.70;99.90
5848;DHT22;8756;49.29324300;8.70599800;2022-12-18T11:30:37;-3.70;99.90
5848;DHT22;8756;49.29324300;8.70599800;2022-12-18T11:33:18;-3.60;99.90
5848;DHT22;8756;49.29324300;8.70599800;2022-12-18T11:35:58;-3.50;99.90
5848;DHT22;8756;49.29324300;8.70599800;2022-12-18T11:38:32;-3.50;99.90
5848;DHT22;8756;49.29324300;8.70599800;2022-12-18T11:45:17;-3.30;99.90
5848;DHT22;8756;49.29324300;8.70599800;2022-12-18T11:53:20;-3.10;99.90
5848;DHT22;8756;49.29324300;8.70599800;2022-12-18T12:11:32;-2.70;99.90
5848;DHT22;8756;49.29324300;8.70599800;2022-12-18T12:14:31;-2.70;99.90
5848;DHT22;8756;49.29324300;8.70599800;2022-12-18T12:26:06;-2.60;99.90
5848;DHT22;8756;49.29324300;8.70599800;2022-12-18T12:32:03;-2.50;99.90
5848;DHT22;8756;49.29324300;8.70599800;2022-12-18T12:37:58;-2.50;99.90
5848;DHT22;8756;49.29324300;8.70599800;2022-12-18T12:40:53;-2.40;99.90
5848;DHT22;8756;49.29324300;8.70599800;2022-12-18T12:46:13;-2.40;99.90
5848;DHT22;8756;49.29324300;8.70599800;2022-12-18T12:48:51;-2.40;99.90
5848;DHT22;8756;49.29324300;8.70599800;2022-12-18T12:51:28;-2.30;99.90
5848;DHT22;8756;49.29324300;8.70599800;2022-12-18T12:54:00;-2.30;99.90
5848;DHT22;8756;49.29324300;8.70599800;2022-12-18T13:00:00;-2.20;99.90
5848;DHT22;8756;49.29324300;8.70599800;2022-12-18T13:02:56;-2.20;99.90
5848;DHT22;8756;49.29324300;8.70599800;2022-12-18T13:05:31;-2.20;99.90
5848;DHT22;8756;49.29324300;8.70599800;2022-12-18T13:08:08;-2.20;99.90
5848;DHT22;8756;49.29324300;8.70599800;2022-12-18T13:10:35;-2.20;99.90
5848;DHT22;8756;49.29324300;8.70599800;2022-12-18T13:13:10;-2.20;99.90
5848;DHT22;8756;49.29324300;8.70599800;2022-12-18T13:15:44;-2.20;99.90
5848;DHT22;8756;49.29324300;8.70599800;2022-12-18T13:18:29;-2.10;99.90
5848;DHT22;8756;49.29324300;8.70599800;2022-12-18T13:29:01;-2.00;99.90
5848;DHT22;8756;49.29324300;8.70599800;2022-12-18T13:34:25;-2.00;99.90
5848;DHT22;8756;49.29324300;8.70599800;2022-12-18T13:36:56;-2.00;99.90
5848;DHT22;8756;49.29324300;8.70599800;2022-12-18T13:39:31;-2.00;99.90
5848;DHT22;8756;49.29324300;8.70599800;2022-12-18T13:44:35;-2.00;99.90
5848;DHT22;8756;49.29324300;8.70599800;2022-12-18T13:47:03;-2.00;99.90
5848;DHT22;8756;49.29324300;8.70599800;2022-12-18T13:49:39;-2.00;99.90
5848;DHT22;8756;49.29324300;8.70599800;2022-12-18T13:52:19;-2.00;99.90
5848;DHT22;8756;49.29324300;8.70599800;2022-12-18T13:54:53;-2.00;99.90
5848;DHT22;8756;49.29324300;8.70599800;2022-12-18T13:59:57;-2.00;99.90
5848;DHT22;8756;49.29324300;8.70599800;2022-12-18T14:02:27;-2.00;99.90
5848;DHT22;8756;49.29324300;8.70599800;2022-12-18T14:04:54;-2.00;99.90
5848;DHT22;8756;49.29324300;8.70599800;2022-12-18T14:07:25;-2.10;99.90
5848;DHT22;8756;49.29324300;8.70599800;2022-12-18T14:09:56;-2.00;99.90
5848;DHT22;8756;49.29324300;8.70599800;2022-12-18T14:12:28;-2.10;99.90
5848;DHT22;8756;49.29324300;8.70599800;2022-12-18T14:15:23;-2.00;99.90
5848;DHT22;8756;49.29324300;8.70599800;2022-12-18T14:18:02;-2.10;99.90
5848;DHT22;8756;49.29324300;8.70599800;2022-12-18T14:20:47;-2.10;99.90
5848;DHT22;8756;49.29324300;8.70599800;2022-12-18T14:23:36;-2.10;99.90
5848;DHT22;8756;49.29324300;8.70599800;2022-12-18T14:28:56;-2.10;99.90
5848;DHT22;8756;49.29324300;8.70599800;2022-12-18T14:31:25;-2.10;99.90
5848;DHT22;8756;49.29324300;8.70599800;2022-12-18T14:33:52;-2.10;99.90
5848;DHT22;8756;49.29324300;8.70599800;2022-12-18T14:36:20;-2.10;99.90
5848;DHT22;8756;49.29324300;8.70599800;2022-12-18T14:38:50;-2.20;99.90
5848;DHT22;8756;49.29324300;8.70599800;2022-12-18T14:41:18;-2.20;99.90
5848;DHT22;8756;49.29324300;8.70599800;2022-12-18T14:43:46;-2.20;99.90
5848;DHT22;8756;49.29324300;8.70599800;2022-12-18T14:52:01;-2.20;99.90
5848;DHT22;8756;49.29324300;8.70599800;2022-12-18T14:54:29;-2.20;99.90
5848;DHT22;8756;49.29324300;8.70599800;2022-12-18T14:57:00;-2.20;99.90
5848;DHT22;8756;49.29324300;8.70599800;2022-12-18T14:59:27;-2.20;99.90
5848;DHT22;8756;49.29324300;8.70599800;2022-12-18T15:04:46;-2.20;99.90
5848;DHT22;8756;49.29324300;8.70599800;2022-12-18T15:07:23;-2.20;99.90
5848;DHT22;8756;49.29324300;8.70599800;2022-12-18T15:10:11;-2.20;99.90
5848;DHT22;8756;49.29324300;8.70599800;2022-12-18T15:23:33;-2.30;99.90
5848;DHT22;8756;49.29324300;8.70599800;2022-12-18T15:26:07;-2.40;99.90
5848;DHT22;8756;49.29324300;8.70599800;2022-12-18T15:33:44;-2.40;99.90
5848;DHT22;8756;49.29324300;8.70599800;2022-12-18T15:36:25;-2.40;99.90
5848;DHT22;8756;49.29324300;8.70599800;2022-12-18T15:38:52;-2.50;99.90
5848;DHT22;8756;49.29324300;8.70599800;2022-12-18T15:41:20;-2.50;99.90
5848;DHT22;8756;49.29324300;8.70599800;2022-12-18T15:43:48;-2.50;99.90
5848;DHT22;8756;49.29324300;8.70599800;2022-12-18T15:46:17;-2.50;99.90
5848;DHT22;8756;49.29324300;8.70599800;2022-12-18T15:48:49;-2.50;99.90
5848;DHT22;8756;49.29324300;8.70599800;2022-12-18T15:51:33;-2.50;99.90
5848;DHT22;8756;49.29324300;8.70599800;2022-12-18T15:54:03;-2.50;99.90
5848;DHT22;8756;49.29324300;8.70599800;2022-12-18T15:56:34;-2.60;99.90
5848;DHT22;8756;49.29324300;8.70599800;2022-12-18T15:59:19;-2.60;99.90
5848;DHT22;8756;49.29324300;8.70599800;2022-12-18T16:01:48;-2.60;99.90
5848;DHT22;8756;49.29324300;8.70599800;2022-12-18T16:04:17;-2.60;99.90
5848;DHT22;8756;49.29324300;8.70599800;2022-12-18T16:06:50;-2.60;99.90
5848;DHT22;8756;49.29324300;8.70599800;2022-12-18T16:09:17;-2.50;99.90
5848;DHT22;8756;49.29324300;8.70599800;2022-12-18T16:11:43;-2.50;99.90
5848;DHT22;8756;49.29324300;8.70599800;2022-12-18T16:14:29;-2.50;99.90